ADDS METAR Data INFO
IDs: Format: Raw Decoded Include TAF

Data at: 1352 UTC 17 Dec 2017

KHWD 171254Z AUTO 00000KT 10SM CLR 10/M09 A3000 RMK AO2 SLP169 T01001089
KHWD 171154Z AUTO 00000KT 10SM CLR 10/M09 A2999 RMK AO2 SLP165 T01001094 10144 20100 51001
KHWD 171054Z AUTO 35008KT 10SM CLR 13/M11 A2999 RMK AO2 SLP165 T01281111
KHWD 170954Z AUTO 35005KT 10SM CLR 12/M10 A2999 RMK AO2 SLP165 T01221100
KHWD 170854Z AUTO 00000KT 10SM CLR 11/M09 A2999 RMK AO2 SLP164 T01111094 53009
KHWD 170754Z AUTO VRB04KT 10SM CLR 12/M09 A2998 RMK AO2 SLP161 T01221089 401940050
KHWD 170654Z AUTO 22006KT 10SM CLR 13/M10 A2997 RMK AO2 SLP158 T01281100
KHWD 170554Z AUTO 01004KT 10SM CLR 14/M11 A2996 RMK AO2 SLP155 T01391111 10183 20139 53002
KHWD 170454Z AUTO 02010G18KT 10SM CLR 14/M12 A2995 RMK AO2 SLP151 T01441117
KHWD 170354Z 35010G20KT 10SM CLR 14/M12 A2994 RMK AO2 SLP148 T01441117
KHWD 170254Z 36009KT 10SM CLR 15/M12 A2995 RMK AO2 SLP152 T01501117 53011
KHWD 170154Z 35011KT 10SM CLR 16/M12 A2994 RMK AO2 PK WND 35028/0058 SLP147 T01561117
KHWD 170054Z 35015G27KT 10SM CLR 17/M12 A2991 RMK AO2 PK WND 35029/2358 SLP139 T01671122
KHWD 162354Z 35016G22KT 10SM CLR 18/M12 A2992 RMK AO2 PK WND 36030/2334 SLP141 T01831117 10194 20156 55004
KHWD 162254Z 36022G27KT 10SM CLR 19/M12 A2990 RMK AO2 PK WND 33034/2216 SLP135 T01891117
KHWD 162154Z 34025G33KT 10SM CLR 19/M11 A2991 RMK AO2 PK WND 35033/2150 SLP138 T01891106
KHWD 162054Z 33018G25KT 10SM CLR 19/M09 A2993 RMK AO2 PK WND 33027/2011 SLP146 T01891094 56013
KHWD 161954Z 33020KT 10SM CLR 18/M09 A2994 RMK AO2 SLP150 T01831089
KHWD 161854Z 33013KT 10SM CLR 18/M09 A2996 RMK AO2 SLP154 T01781089
KHWD 161754Z 33011KT 10SM CLR 16/M06 A2997 RMK AO2 SLP159 T01561061 10156 20050 53003
KHWD 161654Z 34007KT 10SM CLR 13/M02 A2998 RMK AO2 SLP161 T01331022
KHWD 161554Z 34007KT 10SM CLR 10/M01 A2995 RMK AO2 SLP152 T01001011
KHWD 161454Z 32005KT 10SM CLR 09/M01 A2996 RMK AO2 SLP156 T00941006 55004
KHWD 161354Z AUTO 13003KT 10SM CLR 07/02 A2995 RMK AO2 SLP151 T00670022
KHWD 161254Z AUTO 00000KT 7SM CLR 06/03 A2996 RMK AO2 SLP155 T00560033
KHWD 161154Z AUTO 00000KT 5SM HZ CLR 07/04 A2998 RMK AO2 SLP160 T00670039 10117 20061 55005
KHWD 161054Z AUTO 00000KT 4SM BR CLR 07/05 A2997 RMK AO2 SLP160 T00720050
KHWD 160954Z AUTO VRB03KT 5SM HZ CLR 08/06 A2998 RMK AO2 SLP163 T00830056
KHWD 160854Z AUTO 07004KT 4SM BR CLR 09/07 A2999 RMK AO2 SLP165 T00890067 58017
KHWD 160754Z AUTO 00000KT 4SM HZ CLR 09/07 A3002 RMK AO2 SLP176 T00940067 401500050
KHWD 160654Z AUTO 00000KT 5SM HZ CLR 11/08 A3003 RMK AO2 SLP177 T01110078
KHWD 160554Z AUTO 00000KT 6SM BR FEW015 12/09 A3004 RMK AO2 SLP182 T01170094 10133 20111 58000
KHWD 160522Z AUTO 24003KT 7SM FEW009 12/09 A3004 RMK AO2 T01170089
KHWD 160454Z 00000KT 7SM CLR 12/09 A3004 RMK AO2 SLP182 T01170089
KHWD 160354Z 31003KT 6SM HZ CLR 12/09 A3005 RMK AO2 SLP186 T01170089
KHWD 160254Z 00000KT 5SM HZ CLR 12/07 A3004 RMK AO2 SLP183 T01220067 58007
KHWD 160154Z COR 00000KT 4SM HZ SCT050 12/07 A3006 RMK AO2 SLP187 T01170067